Time;durP1;ratioP1;P1;durP2;ratioP2;P2;SDS_P1;SDS_P2;PMS_P1;PMS_P2;Temp;Humidity;BMP_temperature;BMP_pressure;BME280_temperature;BME280_humidity;BME280_pressure;Samples;Min_cycle;Max_cycle;Signal;HPM_P1;HPM_P2
2021/07/04 00:04:34;;;;;;;32.80;20.87;;;;;;;23.97;81.29;100086.16;20906830;28;20306;-53
2021/07/04 00:14:35;;;;;;;33.87;24.20;;;;;;;21.41;99.07;100071.47;20886734;28;20223;-54
2021/07/04 00:24:36;;;;;;;35.97;26.93;;;;;;;21.28;99.93;100060.31;20893464;28;20223;-53
2021/07/04 00:34:36;;;;;;;45.87;30.13;;;;;;;21.42;99.15;100063.16;20893006;28;20268;-55
2021/07/04 00:44:37;;;;;;;43.13;28.73;;;;;;;21.66;98.95;100054.06;20882779;28;20219;-54
2021/07/04 00:54:38;;;;;;;43.03;28.13;;;;;;;21.78;98.01;100047.22;20897738;28;20224;-57
2021/07/04 01:04:38;;;;;;;42.67;26.00;;;;;;;22.15;95.45;100037.53;20875689;28;20707;-61
2021/07/04 01:14:52;;;;;;;40.70;26.43;;;;;;;22.71;91.22;100047.13;20896221;28;20220;-61
2021/07/04 01:24:52;;;;;;;49.37;30.93;;;;;;;21.66;90.02;100034.22;20874696;28;20227;-54
2021/07/04 01:34:53;;;;;;;62.67;33.37;;;;;;;20.11;100.00;100033.53;20896141;28;20230;-53
2021/07/04 01:44:55;;;;;;;68.70;33.70;;;;;;;21.10;100.00;100042.38;20878577;28;20314;-60
2021/07/04 01:54:55;;;;;;;90.50;39.17;;;;;;;19.78;100.00;100055.13;20893405;28;20768;-58
2021/07/04 02:04:57;;;;;;;82.50;37.77;;;;;;;19.78;100.00;100038.03;20885775;28;20365;-58
2021/07/04 02:14:57;;;;;;;78.57;34.63;;;;;;;21.56;100.00;100042.59;20878827;28;20919;-53
2021/07/04 02:24:58;;;;;;;72.70;32.53;;;;;;;22.28;96.38;100045.94;20892097;28;20234;-54
2021/07/04 02:34:58;;;;;;;106.50;38.20;;;;;;;19.82;100.00;100052.91;20869769;28;20306;-53
2021/07/04 02:45:00;;;;;;;139.80;41.97;;;;;;;19.71;100.00;100051.34;20890027;28;20233;-59
2021/07/04 02:55:00;;;;;;;158.27;44.30;;;;;;;19.81;100.00;100045.81;20869223;28;20259;-53
2021/07/04 03:15:10;;;;;;;101.50;33.87;;;;;;;20.00;100.00;100061.78;20588351;27;8343933;-53
2021/07/04 03:25:12;;;;;;;115.70;39.67;;;;;;;20.05;100.00;100066.69;20873962;28;20285;-53
2021/07/04 03:35:13;;;;;;;117.33;38.33;;;;;;;20.29;100.00;100079.44;20876610;28;20637;-63
2021/07/04 03:45:14;;;;;;;98.70;34.07;;;;;;;20.35;100.00;100063.41;20864429;28;20223;-60
2021/07/04 03:55:15;;;;;;;90.70;35.83;;;;;;;20.44;100.00;100088.66;20877954;28;20226;-53
2021/07/04 04:05:15;;;;;;;83.93;32.95;;;;;;;20.81;100.00;100091.72;20854370;28;20301;-52
2021/07/04 04:15:16;;;;;;;103.70;39.07;;;;;;;20.56;100.00;100087.31;20957953;28;20218;-52
2021/07/04 04:25:17;;;;;;;92.93;35.60;;;;;;;21.59;100.00;100074.81;20864833;28;20466;-53
2021/07/04 04:35:17;;;;;;;62.23;30.97;;;;;;;22.79;97.98;100081.63;20902383;28;20222;-55
2021/07/04 04:45:18;;;;;;;57.10;31.03;;;;;;;21.29;100.00;100067.44;20884531;28;20313;-54
2021/07/04 04:55:18;;;;;;;58.37;31.10;;;;;;;21.15;100.00;100077.09;20894964;28;20966;-53
2021/07/04 05:05:19;;;;;;;54.17;28.07;;;;;;;21.52;100.00;100079.25;20890060;28;20234;-58
2021/07/04 05:15:26;;;;;;;66.40;32.27;;;;;;;21.66;100.00;100092.09;20883789;28;20709;-54
2021/07/04 05:25:26;;;;;;;57.33;30.03;;;;;;;21.87;100.00;100103.22;20898114;28;20713;-55
2021/07/04 05:35:27;;;;;;;58.13;28.73;;;;;;;22.23;100.00;100102.72;20873901;28;20278;-53
2021/07/04 05:45:28;;;;;;;57.83;29.53;;;;;;;22.52;100.00;100116.47;20896347;28;20824;-53
2021/07/04 05:55:29;;;;;;;48.70;28.67;;;;;;;22.75;100.00;100115.63;20855384;28;20223;-54
2021/07/04 06:05:29;;;;;;;58.60;30.10;;;;;;;22.92;100.00;100106.34;20894572;28;20215;-53
2021/07/04 06:15:31;;;;;;;55.20;28.77;;;;;;;23.45;100.00;100123.53;20866132;28;20231;-54
2021/07/04 06:25:32;;;;;;;44.80;27.70;;;;;;;23.26;100.00;100106.69;20887027;28;20235;-56
2021/07/04 06:35:32;;;;;;;36.83;24.60;;;;;;;23.54;100.00;100119.72;20874376;28;20317;-55
2021/07/04 06:45:33;;;;;;;35.77;24.37;;;;;;;23.69;100.00;100112.38;20876070;28;20278;-54
2021/07/04 06:55:33;;;;;;;39.27;24.37;;;;;;;23.72;100.00;100128.38;20891523;28;20223;-53
2021/07/04 07:05:34;;;;;;;30.97;21.60;;;;;;;23.04;100.00;100114.91;20857713;28;20299;-53
2021/07/04 07:15:34;;;;;;;33.03;22.10;;;;;;;23.04;100.00;100121.22;20889769;28;20227;-53
2021/07/04 07:25:35;;;;;;;31.60;21.13;;;;;;;23.21;100.00;100128.19;20868111;28;20227;-62
2021/07/04 07:35:36;;;;;;;28.47;21.57;;;;;;;23.08;100.00;100130.69;20879054;28;20544;-54
2021/07/04 07:45:37;;;;;;;32.03;21.37;;;;;;;22.90;100.00;100124.72;20874019;28;20216;-54
2021/07/04 07:55:37;;;;;;;30.67;22.50;;;;;;;22.77;100.00;100108.16;20888570;28;20549;-53
2021/07/04 08:05:37;;;;;;;32.80;21.37;;;;;;;23.46;100.00;100122.50;20896834;28;21257;-54
2021/07/04 08:15:38;;;;;;;27.60;20.70;;;;;;;23.93;100.00;100112.09;20771534;28;20232;-61
2021/07/04 08:25:38;;;;;;;26.60;19.27;;;;;;;24.93;98.03;100103.16;20822748;28;20562;-54
2021/07/04 08:35:39;;;;;;;31.93;21.53;;;;;;;25.72;100.00;100114.72;20830649;28;20216;-54
2021/07/04 08:45:53;;;;;;;34.57;22.53;;;;;;;25.74;100.00;100112.59;20831471;28;20224;-61
2021/07/04 08:55:53;;;;;;;35.67;21.83;;;;;;;25.95;100.00;100109.78;20826901;28;20409;-57
2021/07/04 09:05:56;;;;;;;23.97;18.77;;;;;;;26.64;100.00;100092.34;20795096;28;20228;-64
2021/07/04 09:16:11;;;;;;;28.05;18.88;;;;;;;28.92;99.71;100093.00;20898345;28;20235;-57
2021/07/04 09:36:21;;;;;;;17.40;15.60;;;;;;;27.66;100.00;100089.19;20595252;27;8519118;-54
2021/07/04 09:46:21;;;;;;;19.38;16.40;;;;;;;28.31;100.00;100074.38;20863011;28;20239;-56
2021/07/04 09:56:24;;;;;;;15.77;14.15;;;;;;;27.46;100.00;100064.53;20880826;28;20707;-53
2021/07/04 10:06:24;;;;;;;17.00;15.20;;;;;;;27.90;100.00;100061.88;20868491;28;20723;-55
2021/07/04 10:16:25;;;;;;;13.43;12.13;;;;;;;28.95;100.00;100035.72;20866696;28;20274;-54
2021/07/04 10:26:26;;;;;;;13.82;12.38;;;;;;;29.21;100.00;100031.88;20878783;28;20219;-56
2021/07/04 10:36:26;;;;;;;12.95;11.30;;;;;;;29.19;96.49;100011.19;20940490;28;20219;-54
2021/07/04 10:56:42;;;;;;;10.18;9.32;;;;;;;29.21;100.00;100003.56;20879889;28;20223;-54
2021/07/04 11:06:59;;;;;;;10.07;9.27;;;;;;;29.37;92.94;99989.19;20901896;28;20223;-54
2021/07/04 11:17:03;;;;;;;10.23;9.32;;;;;;;29.99;99.50;99992.72;20881458;28;20223;-54
2021/07/04 11:27:21;;;;;;;10.10;9.10;;;;;;;30.24;93.37;99981.56;20895953;28;20284;-54
2021/07/04 11:37:36;;;;;;;9.43;8.70;;;;;;;30.66;98.07;99974.13;20885880;28;20211;-55
2021/07/04 11:47:37;;;;;;;9.38;8.57;;;;;;;29.97;97.46;99975.59;20890255;28;20249;-56
2021/07/04 11:57:42;;;;;;;9.82;9.13;;;;;;;29.54;89.88;99956.47;20893784;28;20228;-60
2021/07/04 12:07:42;;;;;;;10.15;9.35;;;;;;;28.94;98.47;99937.88;20885650;28;20231;-54
2021/07/04 12:17:48;;;;;;;9.70;9.00;;;;;;;30.35;100.00;99940.28;20895459;28;20219;-57
2021/07/04 12:27:59;;;;;;;9.43;8.50;;;;;;;31.28;94.53;99930.38;20876283;28;20457;-56
2021/07/04 12:38:03;;;;;;;9.23;8.43;;;;;;;29.75;88.51;99928.47;20894684;28;20656;-58
2021/07/04 12:48:06;;;;;;;9.63;8.70;;;;;;;30.51;100.00;99910.38;20872408;28;20222;-54
2021/07/04 12:58:23;;;;;;;6.13;5.53;;;;;;;30.18;79.00;99925.53;20892725;28;20238;-56
2021/07/04 13:08:24;;;;;;;4.70;4.30;;;;;;;26.27;86.48;99948.72;20875533;28;21033;-56
2021/07/04 13:18:29;;;;;;;5.20;4.70;;;;;;;23.04;88.47;100001.44;20885265;28;20215;-54
2021/07/04 13:40:39;;;;;;;80.27;13.60;;;;;;;28.98;76.13;100021.50;20589451;27;8300355;-60
2021/07/04 14:34:41;;;;;;;5.83;3.70;;;;;;;31.50;55.40;99950.72;20595726;27;8253024;-58
2021/07/04 15:04:42;;;;;;;3.27;2.97;;;;;;;30.28;60.42;99923.03;20579677;27;8292082;-56
2021/07/04 15:14:43;;;;;;;4.27;3.10;;;;;;;31.04;58.29;99927.63;20880301;28;20227;-57
2021/07/04 15:24:43;;;;;;;3.47;3.17;;;;;;;28.61;68.09;99929.94;20860125;28;20225;-55
2021/07/04 15:34:44;;;;;;;4.10;3.33;;;;;;;29.47;67.24;99922.69;20875565;28;20639;-56
2021/07/04 15:44:48;;;;;;;2.90;2.70;;;;;;;30.15;65.35;99923.25;20865606;28;20219;-57
2021/07/04 15:54:48;;;;;;;2.97;2.70;;;;;;;29.45;66.94;99911.97;20867577;28;20230;-55
2021/07/04 16:04:49;;;;;;;4.07;2.90;;;;;;;29.40;69.66;99903.56;20954709;28;20219;-56
2021/07/04 16:14:49;;;;;;;4.17;3.40;;;;;;;29.48;69.73;99908.72;20896079;28;20230;-56
2021/07/04 16:24:50;;;;;;;7.20;4.07;;;;;;;28.78;69.65;99913.75;20902185;28;20276;-56
2021/07/04 16:34:51;;;;;;;3.90;3.27;;;;;;;28.33;68.89;99912.25;20877685;28;20223;-57
2021/07/04 16:44:51;;;;;;;4.30;3.10;;;;;;;28.06;71.81;99912.41;20900886;28;20607;-56
2021/07/04 16:54:52;;;;;;;4.40;3.27;;;;;;;28.08;72.40;99910.28;20878749;28;20221;-58
2021/07/04 17:04:52;;;;;;;7.13;3.90;;;;;;;28.30;69.95;99908.88;20895666;28;20230;-57
2021/07/04 17:14:53;;;;;;;6.03;3.77;;;;;;;28.48;69.74;99920.97;20885559;28;20234;-57
2021/07/04 17:24:53;;;;;;;4.37;3.97;;;;;;;28.68;68.56;99924.38;20886141;28;20232;-57
2021/07/04 17:34:54;;;;;;;6.47;5.23;;;;;;;28.17;70.36;99927.31;20892772;28;20226;-56
2021/07/04 17:44:55;;;;;;;6.03;5.40;;;;;;;27.47;73.66;99948.34;20876730;28;20232;-55
2021/07/04 17:54:55;;;;;;;8.00;6.80;;;;;;;27.13;75.27;99944.06;20894000;28;20227;-55
2021/07/04 18:04:55;;;;;;;13.63;9.83;;;;;;;27.16;73.07;99973.78;20877036;28;20223;-57
2021/07/04 18:14:56;;;;;;;7.53;6.37;;;;;;;27.41;71.09;99944.56;20893109;28;20227;-54
2021/07/04 18:24:57;;;;;;;9.23;6.47;;;;;;;27.60;69.80;99946.44;20872585;28;20251;-53
2021/07/04 18:34:57;;;;;;;9.50;6.20;;;;;;;27.69;69.80;99948.91;20887803;28;20333;-53
2021/07/04 18:44:58;;;;;;;7.37;6.20;;;;;;;27.71;69.36;99936.69;20878807;28;20469;-53
2021/07/04 18:55:00;;;;;;;9.27;6.23;;;;;;;27.77;68.35;99933.06;20861055;28;20470;-57
2021/07/04 19:05:01;;;;;;;8.10;6.07;;;;;;;27.69;68.02;99921.50;20883439;28;20852;-54
2021/07/04 19:25:12;;;;;;;7.80;5.50;;;;;;;27.74;67.96;99905.25;20607062;27;8143948;-56
2021/07/04 19:35:13;;;;;;;10.73;6.47;;;;;;;27.67;66.18;99907.16;20852040;28;20572;-53
2021/07/04 19:45:14;;;;;;;12.30;6.87;;;;;;;27.31;66.98;99902.25;20888593;28;20236;-54
2021/07/04 19:55:15;;;;;;;10.80;6.13;;;;;;;27.71;64.44;99891.97;20889719;28;20216;-54
2021/07/04 20:05:17;;;;;;;12.23;8.40;;;;;;;27.83;63.22;99891.03;20889274;28;20577;-54
2021/07/04 20:35:25;;;;;;;11.03;6.80;;;;;;;27.37;64.88;99907.72;20618829;27;8029739;-54
2021/07/04 20:45:26;;;;;;;9.33;6.50;;;;;;;26.85;65.71;99906.78;20824450;28;20247;-63
2021/07/04 20:55:26;;;;;;;18.07;8.90;;;;;;;26.83;65.72;99895.22;20801155;28;20239;-57
2021/07/04 21:05:27;;;;;;;16.47;8.87;;;;;;;26.87;65.27;99904.69;20804416;28;20220;-53
2021/07/04 21:35:35;;;;;;;13.33;7.77;;;;;;;27.08;64.71;99878.09;20555560;27;8284541;-55
2021/07/04 21:45:35;;;;;;;15.10;8.20;;;;;;;27.06;63.47;99866.53;20809384;28;20236;-53
2021/07/04 22:05:45;;;;;;;43.43;9.23;;;;;;;26.61;65.44;99882.84;20614212;27;8110202;-53
2021/07/04 22:15:45;;;;;;;51.90;7.97;;;;;;;26.34;66.45;99875.69;20890118;28;20223;-54
2021/07/04 22:35:54;;;;;;;21.73;8.40;;;;;;;26.27;67.56;99861.16;20932392;27;8285651;-53
2021/07/04 22:56:03;;;;;;;18.80;6.77;;;;;;;26.04;67.67;99872.53;20767970;27;8306292;-52
2021/07/04 23:55:58;;;;;;;16.17;8.73;;;;;;;26.62;67.06;99891.91;20605195;28;8280131;-53
